createdAt,value
2023-05-12T00:01:08.150Z,1.17
2023-05-12T00:03:34.984Z,1.20
2023-05-12T00:06:05.111Z,1.13
2023-05-12T00:08:31.848Z,1.77
2023-05-12T00:10:58.517Z,1.67
2023-05-12T00:13:25.326Z,1.15
2023-05-12T00:15:52.189Z,1.23
2023-05-12T00:18:18.982Z,1.17
2023-05-12T00:20:45.684Z,1.27
2023-05-12T00:23:12.458Z,1.50
2023-05-12T00:25:39.172Z,1.20
2023-05-12T00:28:05.973Z,0.98
2023-05-12T00:30:32.598Z,1.20
2023-05-12T00:32:59.332Z,1.30
2023-05-12T00:35:25.967Z,1.83
2023-05-12T00:37:52.802Z,1.50
2023-05-12T00:40:19.664Z,1.17
2023-05-12T00:42:46.555Z,1.20
2023-05-12T00:45:13.241Z,1.33
2023-05-12T00:47:40.090Z,1.20
2023-05-12T00:50:08.476Z,1.08
2023-05-12T00:52:35.874Z,0.98
2023-05-12T00:55:03.499Z,1.50
2023-05-12T00:57:30.297Z,1.50
2023-05-12T00:59:57.617Z,1.30
2023-05-12T01:02:24.764Z,1.52
2023-05-12T01:04:52.096Z,1.52
2023-05-12T01:07:22.177Z,1.15
2023-05-12T01:09:55.312Z,1.50
2023-05-12T01:12:26.217Z,1.85
2023-05-12T01:17:24.369Z,1.20
2023-05-12T01:19:57.034Z,1.00
2023-05-12T01:22:24.129Z,1.35
2023-05-12T01:25:03.019Z,1.30
2023-05-12T01:27:31.764Z,1.73
2023-05-12T01:30:02.315Z,1.33
2023-05-12T01:32:33.028Z,1.30
2023-05-12T01:35:00.184Z,1.10
2023-05-12T01:37:29.061Z,1.02
2023-05-12T01:39:56.608Z,1.08
2023-05-12T01:42:23.385Z,1.27
2023-05-12T01:44:51.962Z,1.17
2023-05-12T01:47:20.960Z,1.35
2023-05-12T01:49:57.516Z,1.30
2023-05-12T01:52:25.319Z,1.10
2023-05-12T01:54:52.397Z,1.23
2023-05-12T01:57:19.325Z,1.20
2023-05-12T01:59:46.793Z,1.20
2023-05-12T02:02:13.582Z,1.10
2023-05-12T02:04:40.352Z,0.88
2023-05-12T02:07:07.015Z,1.30
2023-05-12T02:09:33.751Z,1.75
2023-05-12T02:12:02.600Z,1.45
2023-05-12T02:14:29.382Z,1.48
2023-05-12T02:16:56.961Z,1.40
2023-05-12T02:19:25.297Z,1.50
2023-05-12T02:21:52.532Z,1.30
2023-05-12T02:24:19.222Z,1.50
2023-05-12T02:26:46.008Z,1.38
2023-05-12T02:29:13.491Z,1.45
2023-05-12T02:31:40.356Z,1.40
2023-05-12T02:34:16.426Z,1.42
2023-05-12T02:36:43.286Z,1.90
2023-05-12T02:39:11.587Z,1.30
2023-05-12T02:41:38.762Z,1.60
2023-05-12T02:44:05.405Z,2.05
2023-05-12T02:46:32.414Z,1.70
2023-05-12T02:48:59.137Z,2.05
2023-05-12T02:51:25.899Z,1.40
2023-05-12T02:53:52.533Z,1.73
2023-05-12T02:56:19.301Z,1.27
2023-05-12T02:58:45.930Z,1.30
2023-05-12T03:01:12.724Z,1.63
2023-05-12T03:03:41.399Z,1.65
2023-05-12T03:06:08.391Z,1.30
2023-05-12T03:08:35.074Z,1.45
2023-05-12T03:11:02.577Z,1.42
2023-05-12T03:13:29.577Z,1.40
2023-05-12T03:15:57.208Z,1.15
2023-05-12T03:18:23.876Z,1.25
2023-05-12T03:20:50.838Z,1.70
2023-05-12T03:23:17.420Z,1.10
2023-05-12T03:25:44.209Z,1.80
2023-05-12T03:28:11.472Z,1.27
2023-05-12T03:30:38.362Z,1.45
2023-05-12T03:33:05.136Z,2.15
2023-05-12T03:35:32.404Z,1.50
2023-05-12T03:38:01.818Z,1.50
2023-05-12T03:40:29.092Z,1.52
2023-05-12T03:42:55.705Z,2.30
2023-05-12T03:45:22.457Z,1.92
2023-05-12T03:47:49.244Z,1.88
2023-05-12T03:50:16.058Z,2.35
2023-05-12T03:52:42.693Z,1.60
2023-05-12T03:55:10.510Z,2.28
2023-05-12T03:57:38.194Z,1.70
2023-05-12T04:00:07.354Z,2.40
2023-05-12T04:02:39.722Z,1.42
2023-05-12T04:05:08.696Z,1.80
2023-05-12T04:07:35.799Z,1.60
2023-05-12T04:10:03.073Z,1.52
2023-05-12T04:12:29.899Z,1.73
2023-05-12T04:14:57.292Z,1.55
2023-05-12T04:17:24.607Z,2.08
2023-05-12T04:19:53.479Z,1.55
2023-05-12T04:22:20.214Z,1.65
2023-05-12T04:24:46.897Z,1.88
2023-05-12T04:27:13.639Z,2.13
2023-05-12T04:29:40.523Z,1.75
2023-05-12T04:32:07.927Z,1.83
2023-05-12T04:34:35.322Z,2.08
2023-05-12T04:37:02.135Z,2.10
2023-05-12T04:39:29.755Z,2.05
2023-05-12T04:41:57.874Z,2.53
2023-05-12T04:44:24.885Z,3.13
2023-05-12T04:46:54.111Z,2.60
2023-05-12T04:49:20.856Z,2.75
2023-05-12T04:51:48.106Z,2.33
2023-05-12T04:54:14.805Z,1.77
2023-05-12T04:56:42.587Z,2.40
2023-05-12T04:59:09.606Z,2.13
2023-05-12T05:01:36.373Z,2.35
2023-05-12T05:04:03.333Z,2.17
2023-05-12T05:06:30.830Z,3.65
2023-05-12T05:08:59.043Z,2.38
2023-05-12T05:11:25.973Z,2.28
2023-05-12T05:13:52.798Z,2.28
2023-05-12T05:16:20.419Z,2.20
2023-05-12T05:18:48.047Z,2.13
2023-05-12T05:21:15.070Z,2.75
2023-05-12T05:23:42.438Z,2.40
2023-05-12T05:26:09.481Z,2.15
2023-05-12T05:28:36.676Z,3.00
2023-05-12T05:31:03.416Z,3.80
2023-05-12T05:33:30.283Z,3.38
2023-05-12T05:35:57.044Z,3.08
2023-05-12T05:38:24.035Z,3.30
2023-05-12T05:40:54.212Z,1.75
2023-05-12T05:43:23.051Z,2.42
2023-05-12T05:45:50.423Z,1.90
2023-05-12T05:48:18.581Z,1.85
2023-05-12T05:50:46.740Z,2.10
2023-05-12T05:53:13.432Z,2.88
2023-05-12T05:55:40.850Z,1.60
2023-05-12T05:58:07.773Z,1.60
2023-05-12T06:00:34.560Z,2.20
2023-05-12T06:03:01.893Z,2.75
2023-05-12T06:05:29.030Z,2.30
2023-05-12T06:07:55.945Z,2.30
2023-05-12T06:10:22.792Z,3.45
2023-05-12T06:12:50.567Z,5.38
2023-05-12T06:15:17.787Z,4.82
2023-05-12T06:17:44.911Z,4.20
2023-05-12T06:20:13.418Z,3.92
2023-05-12T06:22:42.339Z,3.45
2023-05-12T06:25:10.008Z,2.67
2023-05-12T06:27:38.226Z,2.92
2023-05-12T06:30:06.446Z,2.80
2023-05-12T06:32:33.254Z,3.00
2023-05-12T06:34:59.949Z,2.60
2023-05-12T06:37:27.509Z,1.83
2023-05-12T06:39:54.303Z,2.47
2023-05-12T06:42:23.455Z,3.13
2023-05-12T06:44:51.895Z,2.40
2023-05-12T06:47:20.608Z,2.85
2023-05-12T06:49:50.068Z,2.40
2023-05-12T06:52:17.147Z,3.13
2023-05-12T06:54:43.815Z,2.22
2023-05-12T06:57:10.871Z,2.40
2023-05-12T06:59:37.523Z,2.22
2023-05-12T07:02:04.270Z,2.10
2023-05-12T07:04:31.049Z,2.28
2023-05-12T07:06:57.843Z,3.17
2023-05-12T07:09:24.573Z,2.13
2023-05-12T07:11:51.249Z,2.17
2023-05-12T07:14:17.957Z,2.53
2023-05-12T07:16:44.614Z,1.98
2023-05-12T07:19:11.376Z,2.05
2023-05-12T07:21:38.248Z,1.27
2023-05-12T07:24:06.276Z,1.85
2023-05-12T07:26:33.506Z,1.88
2023-05-12T07:29:01.020Z,2.55
2023-05-12T07:31:28.663Z,1.95
2023-05-12T07:33:55.516Z,1.90
2023-05-12T07:36:22.315Z,2.08
2023-05-12T07:38:48.972Z,2.03
2023-05-12T07:41:15.722Z,1.92
2023-05-12T07:43:42.299Z,1.70
2023-05-12T07:46:09.071Z,2.08
2023-05-12T07:48:39.950Z,1.40
2023-05-12T07:51:07.417Z,2.05
2023-05-12T07:53:34.045Z,2.13
2023-05-12T07:56:00.751Z,2.28
2023-05-12T07:58:27.328Z,1.50
2023-05-12T08:00:54.598Z,2.03
2023-05-12T08:03:21.387Z,1.83
2023-05-12T08:05:48.113Z,1.40
2023-05-12T08:08:16.774Z,2.58
2023-05-12T08:10:44.300Z,2.13
2023-05-12T08:13:10.967Z,1.90
2023-05-12T08:15:37.728Z,1.73
2023-05-12T08:18:04.513Z,2.33
2023-05-12T08:20:32.198Z,2.20
2023-05-12T08:22:59.424Z,1.88
2023-05-12T08:25:27.856Z,1.60
2023-05-12T08:27:54.743Z,2.05
2023-05-12T08:30:21.412Z,1.92
2023-05-12T08:32:48.265Z,1.58
2023-05-12T08:35:15.010Z,2.00
2023-05-12T08:37:41.748Z,1.58
2023-05-12T08:40:15.718Z,1.65
2023-05-12T08:43:01.842Z,1.15
2023-05-12T08:45:29.506Z,1.35
2023-05-12T08:47:56.997Z,1.38
2023-05-12T08:50:24.459Z,1.20
2023-05-12T08:52:51.578Z,1.17
2023-05-12T08:55:19.484Z,0.90
2023-05-12T08:57:48.607Z,1.10
2023-05-12T09:00:16.395Z,1.70
2023-05-12T09:02:53.076Z,1.05
2023-05-12T09:05:22.067Z,1.27
2023-05-12T09:07:49.963Z,1.30
2023-05-12T09:10:32.721Z,1.08
2023-05-12T09:13:14.780Z,1.02
2023-05-12T09:15:43.369Z,0.88
2023-05-12T09:18:10.127Z,0.82
2023-05-12T09:20:36.965Z,0.95
2023-05-12T09:23:20.729Z,0.80
2023-05-12T09:25:48.425Z,0.88
2023-05-12T09:28:15.702Z,0.70
2023-05-12T09:30:42.886Z,0.80
2023-05-12T09:33:11.522Z,1.02
2023-05-12T09:35:40.271Z,0.85
2023-05-12T09:38:08.545Z,1.15
2023-05-12T09:40:35.429Z,1.02
2023-05-12T09:43:03.441Z,0.70
2023-05-12T09:45:34.108Z,1.33
2023-05-12T09:48:09.503Z,0.98
2023-05-12T09:50:47.304Z,1.20
2023-05-12T09:53:17.285Z,1.33
2023-05-12T09:55:44.837Z,1.20
2023-05-12T09:58:11.825Z,1.75
2023-05-12T10:00:59.106Z,1.30
2023-05-12T10:03:30.333Z,1.23
2023-05-12T10:05:58.809Z,2.17
2023-05-12T10:08:32.085Z,1.70
2023-05-12T10:10:59.897Z,1.80
2023-05-12T10:13:26.734Z,1.60
2023-05-12T10:15:57.120Z,1.70
2023-05-12T10:20:52.563Z,1.88
2023-05-12T10:23:20.211Z,1.20
2023-05-12T10:25:47.861Z,1.45
2023-05-12T10:28:14.578Z,1.20
2023-05-12T10:30:41.752Z,1.70
2023-05-12T10:33:11.398Z,1.30
2023-05-12T10:35:39.415Z,1.83
2023-05-12T10:38:07.849Z,1.67
2023-05-12T10:40:34.602Z,1.80
2023-05-12T10:43:01.531Z,2.85
2023-05-12T10:45:28.628Z,2.55
2023-05-12T10:48:05.969Z,1.77
2023-05-12T10:50:33.905Z,1.92
2023-05-12T10:53:00.633Z,1.95
2023-05-12T10:55:42.795Z,2.25
2023-05-12T10:58:11.713Z,2.13
2023-05-12T11:00:50.532Z,1.92
2023-05-12T11:03:25.332Z,1.42
2023-05-12T11:06:03.060Z,1.65
2023-05-12T11:08:32.426Z,1.63
2023-05-12T11:10:59.499Z,1.65
2023-05-12T11:13:26.274Z,17.50
2023-05-12T11:15:53.121Z,3.40
2023-05-12T11:18:21.698Z,1.85
2023-05-12T11:20:48.888Z,1.65
2023-05-12T11:23:27.236Z,1.88
2023-05-12T11:25:54.044Z,1.85
2023-05-12T11:28:20.687Z,1.58
2023-05-12T11:30:55.005Z,1.45
2023-05-12T11:33:25.507Z,1.48
2023-05-12T11:35:52.240Z,1.52
2023-05-12T11:38:19.624Z,1.42
2023-05-12T11:40:47.101Z,1.30
2023-05-12T11:43:15.233Z,0.95
2023-05-12T11:45:42.298Z,1.15
2023-05-12T11:48:13.814Z,0.88
2023-05-12T11:50:42.317Z,1.30
2023-05-12T11:53:14.786Z,1.10
2023-05-12T11:55:55.817Z,1.52
2023-05-12T11:58:26.597Z,0.90
2023-05-12T12:00:54.240Z,1.08
2023-05-12T12:03:21.204Z,1.55
2023-05-12T12:05:59.698Z,1.13
2023-05-12T12:08:26.428Z,1.13
2023-05-12T12:10:53.159Z,1.05
2023-05-12T12:13:24.506Z,1.20
2023-05-12T12:15:51.560Z,1.35
2023-05-12T12:18:21.592Z,1.20
2023-05-12T12:20:48.689Z,1.02
2023-05-12T12:23:15.467Z,1.23
2023-05-12T12:25:42.258Z,1.13
2023-05-12T12:28:09.031Z,1.00
2023-05-12T12:30:35.728Z,0.98
2023-05-12T12:33:02.478Z,1.23
2023-05-12T12:35:29.189Z,0.80
2023-05-12T12:37:55.789Z,0.80
2023-05-12T12:40:22.501Z,1.27
2023-05-12T12:42:49.197Z,0.80
2023-05-12T12:45:16.952Z,1.10
2023-05-12T12:47:44.666Z,0.98
2023-05-12T12:50:11.650Z,1.27
2023-05-12T12:52:38.685Z,1.05
2023-05-12T12:55:06.747Z,1.30
2023-05-12T12:57:33.385Z,0.90
2023-05-12T13:00:00.156Z,1.20
2023-05-12T13:02:27.020Z,1.00
2023-05-12T13:04:53.915Z,1.15
2023-05-12T13:07:20.840Z,1.30
2023-05-12T13:09:47.580Z,1.00
2023-05-12T13:12:14.704Z,1.10
2023-05-12T13:14:41.453Z,0.77
2023-05-12T13:17:08.206Z,1.08
2023-05-12T13:19:37.786Z,0.80
2023-05-12T13:22:05.202Z,1.13
2023-05-12T13:24:31.904Z,0.75
2023-05-12T13:26:58.896Z,0.73
2023-05-12T13:29:25.649Z,0.70
2023-05-12T13:31:52.453Z,0.80
2023-05-12T13:34:19.163Z,0.93
2023-05-12T13:36:45.857Z,0.90
2023-05-12T13:39:12.686Z,0.70
2023-05-12T13:41:39.379Z,0.52
2023-05-12T13:44:06.223Z,0.60
2023-05-12T13:46:32.937Z,0.63
2023-05-12T13:48:59.657Z,0.60
2023-05-12T13:51:26.753Z,0.77
2023-05-12T13:53:53.529Z,0.55
2023-05-12T13:56:20.365Z,0.70
2023-05-12T13:58:47.791Z,0.90
2023-05-12T14:01:14.815Z,0.80
2023-05-12T14:03:42.149Z,1.00
2023-05-12T14:06:09.345Z,0.73
2023-05-12T14:08:36.346Z,0.70
2023-05-12T14:11:03.310Z,0.90
2023-05-12T14:13:30.229Z,1.05
2023-05-12T14:15:57.301Z,0.80
2023-05-12T14:18:25.104Z,0.75
2023-05-12T14:20:52.176Z,0.68
2023-05-12T14:23:18.867Z,1.13
2023-05-12T14:25:45.794Z,0.82
2023-05-12T14:28:12.455Z,0.95
2023-05-12T14:30:39.558Z,0.73
2023-05-12T14:33:06.572Z,0.73
2023-05-12T14:35:33.378Z,1.42
2023-05-12T14:38:00.021Z,0.75
2023-05-12T14:40:27.494Z,0.50
2023-05-12T14:42:55.091Z,0.50
2023-05-12T14:45:22.255Z,0.90
2023-05-12T14:47:49.235Z,0.70
2023-05-12T14:50:16.098Z,0.70
2023-05-12T14:52:42.732Z,0.60
2023-05-12T14:55:13.979Z,0.50
2023-05-12T14:57:41.488Z,0.52
2023-05-12T15:00:10.785Z,0.65
2023-05-12T15:02:37.980Z,0.67
2023-05-12T15:05:07.116Z,0.75
2023-05-12T15:07:34.066Z,0.80
2023-05-12T15:10:01.157Z,0.82
2023-05-12T15:12:27.944Z,1.70
2023-05-12T15:14:56.348Z,0.80
2023-05-12T15:17:23.477Z,1.30
2023-05-12T15:19:50.367Z,1.05
2023-05-12T15:22:17.024Z,0.90
2023-05-12T15:24:43.869Z,0.80
2023-05-12T15:27:10.631Z,1.08
2023-05-12T15:29:41.355Z,0.55
2023-05-12T15:32:08.223Z,1.17
2023-05-12T15:34:35.119Z,1.10
2023-05-12T15:37:01.966Z,1.50
2023-05-12T15:39:28.693Z,1.10
2023-05-12T15:41:55.386Z,0.95
2023-05-12T15:44:21.985Z,0.90
2023-05-12T15:46:48.727Z,1.00
2023-05-12T15:49:15.396Z,1.00
2023-05-12T15:51:42.142Z,1.00
2023-05-12T15:54:09.730Z,1.10
2023-05-12T15:56:37.349Z,1.17
2023-05-12T15:59:05.207Z,1.48
2023-05-12T16:01:32.100Z,1.67
2023-05-12T16:04:00.674Z,1.30
2023-05-12T16:06:27.560Z,1.40
2023-05-12T16:08:54.299Z,1.30
2023-05-12T16:11:20.930Z,1.30
2023-05-12T16:13:47.646Z,1.10
2023-05-12T16:16:14.395Z,1.17
2023-05-12T16:18:41.371Z,1.10
2023-05-12T16:21:09.557Z,1.02
2023-05-12T16:23:36.346Z,1.00
2023-05-12T16:26:03.278Z,1.10
2023-05-12T16:28:30.040Z,0.93
2023-05-12T16:30:56.778Z,0.60
2023-05-12T16:33:23.493Z,0.90
2023-05-12T16:35:50.757Z,1.02
2023-05-12T16:38:17.503Z,0.68
2023-05-12T16:40:44.377Z,0.85
2023-05-12T16:43:11.006Z,1.05
2023-05-12T16:45:37.811Z,0.60
2023-05-12T16:48:04.853Z,0.90
2023-05-12T16:50:32.205Z,1.15
2023-05-12T16:52:58.860Z,0.70
2023-05-12T16:55:25.707Z,1.00
2023-05-12T16:57:52.366Z,0.77
2023-05-12T17:00:19.362Z,1.25
2023-05-12T17:02:46.057Z,1.10
2023-05-12T17:05:12.857Z,0.98
2023-05-12T17:07:39.495Z,1.40
2023-05-12T17:10:06.689Z,1.05
2023-05-12T17:12:33.352Z,1.23
2023-05-12T17:15:07.399Z,1.20
2023-05-12T17:17:35.023Z,1.20
2023-05-12T17:20:02.465Z,1.10
2023-05-12T17:22:29.611Z,1.50
2023-05-12T17:24:56.681Z,1.67
2023-05-12T17:27:23.524Z,0.98
2023-05-12T17:29:50.204Z,1.20
2023-05-12T17:32:17.090Z,1.27
2023-05-12T17:34:43.798Z,1.30
2023-05-12T17:37:10.540Z,1.25
2023-05-12T17:39:40.439Z,1.33
2023-05-12T17:42:07.562Z,1.60
2023-05-12T17:44:34.200Z,1.35
2023-05-12T17:47:01.288Z,1.13
2023-05-12T17:49:28.046Z,1.50
2023-05-12T17:51:55.022Z,1.02
2023-05-12T17:54:21.674Z,1.30
2023-05-12T17:56:48.744Z,1.10
2023-05-12T17:59:15.357Z,1.33
2023-05-12T18:01:42.245Z,1.75
2023-05-12T18:04:09.160Z,1.30
2023-05-12T18:06:35.964Z,1.30
2023-05-12T18:09:03.281Z,1.38
2023-05-12T18:11:30.018Z,1.55
2023-05-12T18:13:56.657Z,1.58
2023-05-12T18:16:29.023Z,1.20
2023-05-12T18:18:56.933Z,1.05
2023-05-12T18:21:23.714Z,0.88
2023-05-12T18:23:50.378Z,1.13
2023-05-12T18:26:17.056Z,1.00
2023-05-12T18:28:43.751Z,1.10
2023-05-12T18:31:15.474Z,1.08
2023-05-12T18:33:42.558Z,0.85
2023-05-12T18:36:10.169Z,0.90
2023-05-12T18:38:37.098Z,1.08
2023-05-12T18:41:03.790Z,1.02
2023-05-12T18:43:30.510Z,1.38
2023-05-12T18:45:57.288Z,1.40
2023-05-12T18:48:24.014Z,1.42
2023-05-12T18:50:50.943Z,1.30
2023-05-12T18:53:17.840Z,1.42
2023-05-12T18:55:44.578Z,1.52
2023-05-12T18:58:11.279Z,1.58
2023-05-12T19:00:37.993Z,1.88
2023-05-12T19:03:04.754Z,2.13
2023-05-12T19:05:31.603Z,1.50
2023-05-12T19:07:58.427Z,1.73
2023-05-12T19:10:25.168Z,1.58
2023-05-12T19:12:51.912Z,1.60
2023-05-12T19:15:19.021Z,1.50
2023-05-12T19:17:45.912Z,1.95
2023-05-12T19:20:12.608Z,1.48
2023-05-12T19:22:39.392Z,1.98
2023-05-12T19:25:06.507Z,1.90
2023-05-12T19:27:33.229Z,1.50
2023-05-12T19:30:02.242Z,2.05
2023-05-12T19:32:29.158Z,1.67
2023-05-12T19:34:56.073Z,1.33
2023-05-12T19:37:22.944Z,1.75
2023-05-12T19:39:50.344Z,1.65
2023-05-12T19:42:17.201Z,1.42
2023-05-12T19:44:43.868Z,1.60
2023-05-12T19:47:11.368Z,1.58
2023-05-12T19:49:38.521Z,1.90
2023-05-12T19:52:06.030Z,2.10
2023-05-12T19:54:32.755Z,1.83
2023-05-12T19:56:59.433Z,1.80
2023-05-12T19:59:26.744Z,2.25
2023-05-12T20:01:53.793Z,2.08
2023-05-12T20:04:20.496Z,2.67
2023-05-12T20:06:47.158Z,2.42
2023-05-12T20:09:13.908Z,3.03
2023-05-12T20:11:40.465Z,2.42
2023-05-12T20:14:07.149Z,2.15
2023-05-12T20:16:33.865Z,2.40
2023-05-12T20:19:02.646Z,2.22
2023-05-12T20:21:31.379Z,2.15
2023-05-12T20:23:58.165Z,2.35
2023-05-12T20:26:24.842Z,2.47
2023-05-12T20:28:51.507Z,2.20
2023-05-12T20:31:18.816Z,2.08
2023-05-12T20:33:45.621Z,1.90
2023-05-12T20:36:12.282Z,2.00
2023-05-12T20:38:39.809Z,2.03
2023-05-12T20:41:07.449Z,2.10
2023-05-12T20:43:34.215Z,3.05
2023-05-12T20:46:04.708Z,1.83
2023-05-12T20:48:32.494Z,2.13
2023-05-12T20:50:59.667Z,1.90
2023-05-12T20:53:26.404Z,2.30
2023-05-12T20:55:53.000Z,1.92
2023-05-12T20:58:19.715Z,2.22
2023-05-12T21:00:46.340Z,1.92
2023-05-12T21:03:16.855Z,2.03
2023-05-12T21:05:47.706Z,2.10
2023-05-12T21:10:41.441Z,2.35
2023-05-12T21:13:08.147Z,2.55
2023-05-12T21:15:35.108Z,3.05
2023-05-12T21:18:01.860Z,2.30
2023-05-12T21:20:28.497Z,3.00
2023-05-12T21:22:56.851Z,2.65
2023-05-12T21:25:23.858Z,3.25
2023-05-12T21:27:50.550Z,2.97
2023-05-12T21:30:17.339Z,3.00
2023-05-12T21:32:44.383Z,3.38
2023-05-12T21:35:11.430Z,3.20
2023-05-12T21:37:38.313Z,3.45
2023-05-12T21:40:05.965Z,3.65
2023-05-12T21:42:32.708Z,3.55
2023-05-12T21:44:59.396Z,3.38
2023-05-12T21:47:26.076Z,3.33
2023-05-12T21:49:54.572Z,3.83
2023-05-12T21:52:21.361Z,3.00
2023-05-12T21:54:47.956Z,3.65
2023-05-12T21:57:14.822Z,2.97
2023-05-12T21:59:41.368Z,3.42
2023-05-12T22:02:08.113Z,3.50
2023-05-12T22:04:34.944Z,3.10
2023-05-12T22:07:01.650Z,3.50
2023-05-12T22:09:30.396Z,3.83
2023-05-12T22:11:57.979Z,3.22
2023-05-12T22:14:24.834Z,3.33
2023-05-12T22:16:51.657Z,3.05
2023-05-12T22:19:18.431Z,3.72
2023-05-12T22:21:45.728Z,3.45
2023-05-12T22:24:12.423Z,3.67
2023-05-12T22:26:39.240Z,3.70
2023-05-12T22:29:05.884Z,4.43
2023-05-12T22:31:32.606Z,3.72
2023-05-12T22:33:59.346Z,3.60
2023-05-12T22:36:25.981Z,3.55
2023-05-12T22:38:52.649Z,3.92
2023-05-12T22:41:19.366Z,3.92
2023-05-12T22:43:46.191Z,3.85
2023-05-12T22:46:12.950Z,3.50
2023-05-12T22:48:39.880Z,4.22
2023-05-12T22:51:06.909Z,3.60
2023-05-12T22:53:41.188Z,4.40
2023-05-12T22:56:08.302Z,3.80
2023-05-12T22:58:34.893Z,3.70
2023-05-12T23:01:01.778Z,3.25
2023-05-12T23:03:28.509Z,3.40
2023-05-12T23:05:55.668Z,4.13
2023-05-12T23:08:22.405Z,3.65
2023-05-12T23:10:49.098Z,3.80
2023-05-12T23:13:16.000Z,4.15
2023-05-12T23:15:42.743Z,3.78
2023-05-12T23:18:09.609Z,2.75
2023-05-12T23:20:36.355Z,3.38
2023-05-12T23:23:03.055Z,3.80
2023-05-12T23:25:29.730Z,3.92
2023-05-12T23:27:56.278Z,3.90
2023-05-12T23:30:23.332Z,4.25
2023-05-12T23:32:50.699Z,4.00
2023-05-12T23:35:17.567Z,4.10
2023-05-12T23:37:44.756Z,4.10
2023-05-12T23:40:11.686Z,4.13
2023-05-12T23:42:38.253Z,3.22
2023-05-12T23:45:05.510Z,3.58
2023-05-12T23:47:32.152Z,3.45
2023-05-12T23:49:58.828Z,3.63
2023-05-12T23:52:25.938Z,3.67
2023-05-12T23:54:53.050Z,3.28
2023-05-12T23:57:19.758Z,3.08
2023-05-12T23:59:46.459Z,3.58
